Fallston, Maryland
Current Conditions -  °F | °C
As of 4:45 PM on Monday 24 Nov 2014 (Local Time) from KMTN Reporting Station
Clear Clear  
Wind Chill: 14°   Ceiling: Unl
Heat Index: 14°   Visibility: 10mi
Dew Point: 12°   Wind: 7mph
Humidity: 88%   Direction: 130°SE
Pressure: 29.66"   Gusts: NA
Location:  39.52°N, 76.41°W
Report Text: KMTN 242145Z 13006KT 10SM SKC 14/12 A2966
Loading
Personal Weather Stations






























Interactive Weather Map New forecast layout! Learn more

10-Day Weather Forecast

Advertisements
Track Severe Weather on mobile